createdAt,value
2023-08-14T00:00:55.794Z,100750.75
2023-08-14T00:03:23.074Z,100756.69
2023-08-14T00:05:49.757Z,100752.81
2023-08-14T00:08:16.431Z,100758.41
2023-08-14T00:10:43.373Z,100755.00
2023-08-14T00:13:10.034Z,100759.44
2023-08-14T00:15:36.951Z,100756.19
2023-08-14T00:18:04.114Z,100757.75
2023-08-14T00:20:30.774Z,100751.63
2023-08-14T00:22:57.508Z,100759.75
2023-08-14T00:25:24.289Z,100756.00
2023-08-14T00:27:50.917Z,100756.84
2023-08-14T00:30:17.537Z,100754.47
2023-08-14T00:32:44.161Z,100753.75
2023-08-14T00:35:10.769Z,100754.28
2023-08-14T00:37:48.290Z,100757.81
2023-08-14T00:40:16.936Z,100754.44
2023-08-14T00:42:46.834Z,100751.19
2023-08-14T00:45:13.648Z,100750.84
2023-08-14T00:47:41.594Z,100756.78
2023-08-14T00:50:09.172Z,100754.22
2023-08-14T00:52:38.635Z,100754.88
2023-08-14T00:55:09.741Z,100762.22
2023-08-14T00:57:36.949Z,100764.41
2023-08-14T01:00:07.702Z,100764.06
2023-08-14T01:02:35.862Z,100766.41
2023-08-14T01:05:02.785Z,100764.50
2023-08-14T01:07:31.221Z,100762.63
2023-08-14T01:09:58.561Z,100762.56
2023-08-14T01:12:43.816Z,100765.28
2023-08-14T01:15:35.600Z,100760.34
2023-08-14T01:18:04.322Z,100762.72
2023-08-14T01:20:33.331Z,100759.16
2023-08-14T01:23:33.883Z,100763.69
2023-08-14T01:26:02.101Z,100762.84
2023-08-14T01:28:29.943Z,100769.97
2023-08-14T01:30:56.645Z,100765.09
2023-08-14T01:33:23.315Z,100764.88
2023-08-14T01:35:59.114Z,100757.69
2023-08-14T01:38:48.661Z,100752.91
2023-08-14T01:41:26.937Z,100752.75
2023-08-14T01:43:58.647Z,100750.69
2023-08-14T01:46:27.033Z,100755.25
2023-08-14T01:48:55.876Z,100753.72
2023-08-14T01:51:23.314Z,100754.41
2023-08-14T01:53:50.263Z,100751.69
2023-08-14T01:56:16.941Z,100756.13
2023-08-14T01:58:43.615Z,100756.59
2023-08-14T02:01:10.306Z,100755.22
2023-08-14T02:03:37.056Z,100763.84
2023-08-14T02:06:03.727Z,100774.31
2023-08-14T02:08:30.321Z,100773.25
2023-08-14T02:10:56.960Z,100773.25
2023-08-14T02:13:23.646Z,100767.66
2023-08-14T02:15:50.372Z,100778.50
2023-08-14T02:18:17.015Z,100773.72
2023-08-14T02:20:50.024Z,100768.50
2023-08-14T02:23:17.031Z,100774.09
2023-08-14T02:25:44.136Z,100771.53
2023-08-14T02:28:11.560Z,100775.88
2023-08-14T02:30:42.663Z,100774.88
2023-08-14T02:33:09.773Z,100781.00
2023-08-14T02:35:36.975Z,100773.84
2023-08-14T02:38:05.826Z,100774.88
2023-08-14T02:40:32.706Z,100771.63
2023-08-14T02:43:01.799Z,100771.88
2023-08-14T02:45:29.115Z,100773.91
2023-08-14T02:47:55.951Z,100767.63
2023-08-14T02:50:22.811Z,100773.75
2023-08-14T02:52:50.358Z,100775.75
2023-08-14T02:55:17.085Z,100774.53
2023-08-14T02:57:43.988Z,100775.38
2023-08-14T03:00:11.040Z,100780.44
2023-08-14T03:02:37.884Z,100785.47
2023-08-14T03:05:04.943Z,100783.06
2023-08-14T03:07:31.634Z,100786.94
2023-08-14T03:09:58.239Z,100790.66
2023-08-14T03:12:24.804Z,100789.22
2023-08-14T03:14:51.407Z,100783.19
2023-08-14T03:17:18.013Z,100791.16
2023-08-14T03:19:44.661Z,100791.00
2023-08-14T03:22:11.318Z,100787.34
2023-08-14T03:24:37.983Z,100794.94
2023-08-14T03:27:04.667Z,100790.38
2023-08-14T03:29:31.275Z,100791.69
2023-08-14T03:31:57.958Z,100792.53
2023-08-14T03:34:24.643Z,100791.81
2023-08-14T03:36:51.278Z,100795.00
2023-08-14T03:39:17.877Z,100797.03
2023-08-14T03:41:45.858Z,100796.91
2023-08-14T03:44:12.650Z,100796.22
2023-08-14T03:46:39.384Z,100802.94
2023-08-14T03:49:06.555Z,100798.38
2023-08-14T03:51:33.281Z,100805.34
2023-08-14T03:53:59.888Z,100798.69
2023-08-14T03:56:26.753Z,100797.84
2023-08-14T03:58:53.366Z,100806.78
2023-08-14T04:01:20.806Z,100807.25
2023-08-14T04:03:47.434Z,100808.97
2023-08-14T04:06:14.285Z,100806.66
2023-08-14T04:08:40.994Z,100812.88
2023-08-14T04:11:07.839Z,100814.44
2023-08-14T04:13:34.517Z,100818.84
2023-08-14T04:16:01.827Z,100821.84
2023-08-14T04:18:29.235Z,100828.81
2023-08-14T04:20:56.373Z,100826.91
2023-08-14T04:23:27.422Z,100827.44
2023-08-14T04:25:54.523Z,100834.56
2023-08-14T04:28:21.127Z,100830.09
2023-08-14T04:30:47.746Z,100836.28
2023-08-14T04:33:14.421Z,100833.72
2023-08-14T04:35:41.324Z,100837.25
2023-08-14T04:38:08.208Z,100830.59
2023-08-14T04:40:35.071Z,100832.38
2023-08-14T04:43:01.770Z,100829.88
2023-08-14T04:45:28.535Z,100840.69
2023-08-14T04:47:57.409Z,100830.75
2023-08-14T04:50:24.566Z,100830.13
2023-08-14T04:52:51.209Z,100826.91
2023-08-14T04:55:17.897Z,100828.50
2023-08-14T04:57:44.900Z,100823.94
2023-08-14T05:00:12.320Z,100828.06
2023-08-14T05:02:39.447Z,100824.38
2023-08-14T05:05:06.388Z,100824.44
2023-08-14T05:07:32.968Z,100827.34
2023-08-14T05:09:59.643Z,100832.97
2023-08-14T05:12:26.246Z,100836.63
2023-08-14T05:14:54.733Z,100837.03
2023-08-14T05:17:21.850Z,100833.00
2023-08-14T05:19:48.693Z,100835.75
2023-08-14T05:22:15.470Z,100830.19
2023-08-14T05:24:42.148Z,100840.59
2023-08-14T05:27:08.830Z,100833.63
2023-08-14T05:29:35.446Z,100840.81
2023-08-14T05:32:02.235Z,100840.81
2023-08-14T05:34:28.878Z,100845.94
2023-08-14T05:36:55.540Z,100838.66
2023-08-14T05:39:22.176Z,100837.13
2023-08-14T05:41:50.690Z,100841.91
2023-08-14T05:44:18.494Z,100836.63
2023-08-14T05:46:48.135Z,100840.19
2023-08-14T05:49:16.152Z,100844.91
2023-08-14T05:51:42.805Z,100832.47
2023-08-14T05:54:10.086Z,100831.75
2023-08-14T05:56:36.883Z,100834.25
2023-08-14T05:59:03.714Z,100833.22
2023-08-14T06:01:30.467Z,100841.66
2023-08-14T06:03:57.520Z,100837.66
2023-08-14T06:06:24.352Z,100836.44
2023-08-14T06:08:51.002Z,100831.56
2023-08-14T06:11:17.665Z,100838.88
2023-08-14T06:13:44.643Z,100838.81
2023-08-14T06:16:13.152Z,100848.63
2023-08-14T06:18:39.814Z,100853.91
2023-08-14T06:21:06.539Z,100849.81
2023-08-14T06:23:33.143Z,100851.63
2023-08-14T06:25:59.900Z,100851.75
2023-08-14T06:28:26.678Z,100850.44
2023-08-14T06:30:53.324Z,100848.81
2023-08-14T06:33:20.009Z,100855.28
2023-08-14T06:35:46.652Z,100862.16
2023-08-14T06:38:13.539Z,100860.81
2023-08-14T06:40:40.233Z,100855.41
2023-08-14T06:43:07.757Z,100855.03
2023-08-14T06:45:34.667Z,100860.78
2023-08-14T06:48:01.374Z,100851.25
2023-08-14T06:50:28.200Z,100859.38
2023-08-14T06:52:54.842Z,100859.06
2023-08-14T06:55:22.113Z,100871.03
2023-08-14T06:57:48.854Z,100859.13
2023-08-14T07:00:16.237Z,100866.81
2023-08-14T07:02:44.580Z,100865.31
2023-08-14T07:05:12.128Z,100866.44
2023-08-14T07:07:39.783Z,100877.22
2023-08-14T07:10:07.475Z,100882.00
2023-08-14T07:12:34.437Z,100873.44
2023-08-14T07:15:06.182Z,100872.44
2023-08-14T07:17:33.604Z,100869.56
2023-08-14T07:20:00.413Z,100866.88
2023-08-14T07:22:27.064Z,100858.13
2023-08-14T07:24:53.781Z,100868.94
2023-08-14T07:27:23.106Z,100867.94
2023-08-14T07:29:50.874Z,100866.81
2023-08-14T07:34:44.187Z,100854.44
2023-08-14T07:37:10.819Z,100861.41
2023-08-14T07:39:37.495Z,100863.13
2023-08-14T07:42:05.405Z,100862.34
2023-08-14T07:44:32.155Z,100860.06
2023-08-14T07:46:58.810Z,100861.34
2023-08-14T07:49:25.432Z,100854.63
2023-08-14T07:51:52.040Z,100851.69
2023-08-14T07:54:18.667Z,100859.31
2023-08-14T07:56:47.058Z,100852.78
2023-08-14T07:59:14.916Z,100850.66
2023-08-14T08:01:42.650Z,100850.47
2023-08-14T08:04:09.348Z,100850.69
2023-08-14T08:06:43.918Z,100853.22
2023-08-14T08:09:12.661Z,100855.53
2023-08-14T08:11:39.329Z,100851.94
2023-08-14T08:14:07.903Z,100847.00
2023-08-14T08:16:37.959Z,100851.41
2023-08-14T08:19:07.632Z,100848.63
2023-08-14T08:21:34.565Z,100854.03
2023-08-14T08:24:01.270Z,100862.44
2023-08-14T08:26:28.119Z,100856.28
2023-08-14T08:28:54.872Z,100868.94
2023-08-14T08:31:21.594Z,100864.00
2023-08-14T08:33:48.300Z,100860.53
2023-08-14T08:36:18.497Z,100861.72
2023-08-14T08:38:48.466Z,100858.16
2023-08-14T08:41:22.987Z,100861.78
2023-08-14T08:44:11.761Z,100867.53
2023-08-14T08:46:44.451Z,100866.28
2023-08-14T08:49:12.081Z,100864.81
2023-08-14T08:51:40.629Z,100867.81
2023-08-14T08:54:09.448Z,100868.09
2023-08-14T08:56:36.256Z,100859.03
2023-08-14T08:59:04.837Z,100868.34
2023-08-14T09:01:32.069Z,100864.00
2023-08-14T09:03:59.096Z,100853.56
2023-08-14T09:06:25.880Z,100851.53
2023-08-14T09:08:52.662Z,100855.16
2023-08-14T09:11:19.445Z,100852.38
2023-08-14T09:13:47.038Z,100843.53
2023-08-14T09:16:17.522Z,100847.41
2023-08-14T09:18:47.010Z,100843.91
2023-08-14T09:21:15.280Z,100833.06
2023-08-14T09:23:43.325Z,100840.19
2023-08-14T09:26:12.119Z,100828.53
2023-08-14T09:28:40.159Z,100838.34
2023-08-14T09:31:10.923Z,100837.03
2023-08-14T09:33:46.634Z,100829.81
2023-08-14T09:36:16.310Z,100833.56
2023-08-14T09:38:42.951Z,100832.06
2023-08-14T09:41:10.158Z,100833.75
2023-08-14T09:43:36.916Z,100830.34
2023-08-14T09:46:04.579Z,100826.63
2023-08-14T09:48:46.117Z,100827.19
2023-08-14T09:51:17.735Z,100826.75
2023-08-14T09:53:49.010Z,100828.13
2023-08-14T09:56:17.792Z,100825.47
2023-08-14T09:58:44.602Z,100833.69
2023-08-14T10:01:16.140Z,100827.25
2023-08-14T10:03:43.467Z,100826.28
2023-08-14T10:06:13.805Z,100824.34
2023-08-14T10:08:45.267Z,100827.28
2023-08-14T10:11:19.842Z,100815.66
2023-08-14T10:13:51.420Z,100818.38
2023-08-14T10:16:28.359Z,100820.47
2023-08-14T10:18:56.261Z,100815.22
2023-08-14T10:21:27.556Z,100815.53
2023-08-14T10:23:55.684Z,100822.16
2023-08-14T10:26:25.224Z,100824.72
2023-08-14T10:28:54.529Z,100812.81
2023-08-14T10:31:22.057Z,100813.44
2023-08-14T10:33:50.153Z,100810.94
2023-08-14T10:36:21.120Z,100811.09
2023-08-14T10:38:48.115Z,100807.69
2023-08-14T10:41:18.880Z,100814.00
2023-08-14T10:43:51.852Z,100802.59
2023-08-14T10:46:19.127Z,100798.34
2023-08-14T10:48:50.095Z,100796.72
2023-08-14T10:51:21.637Z,100788.72
2023-08-14T10:53:48.449Z,100789.75
2023-08-14T10:56:15.240Z,100785.84
2023-08-14T10:58:49.773Z,100781.16
2023-08-14T11:01:18.285Z,100775.94
2023-08-14T11:04:04.959Z,100781.44
2023-08-14T11:06:58.493Z,100774.59
2023-08-14T11:09:29.897Z,100767.50
2023-08-14T11:11:58.485Z,100769.22
2023-08-14T11:14:25.264Z,100758.31
2023-08-14T11:16:51.941Z,100757.81
2023-08-14T11:19:19.082Z,100761.78
2023-08-14T11:21:49.927Z,100765.00
2023-08-14T11:24:16.840Z,100768.56
2023-08-14T11:26:43.532Z,100754.19
2023-08-14T11:29:10.195Z,100755.34
2023-08-14T11:31:42.034Z,100757.34
2023-08-14T11:34:17.886Z,100756.81
2023-08-14T11:39:32.928Z,100750.22
2023-08-14T11:41:59.607Z,100751.00
2023-08-14T11:44:26.316Z,100748.53
2023-08-14T11:46:53.834Z,100747.69
2023-08-14T11:49:20.684Z,100746.31
2023-08-14T11:51:47.685Z,100733.47
2023-08-14T11:54:15.576Z,100742.69
2023-08-14T11:56:42.335Z,100743.53
2023-08-14T11:59:09.007Z,100741.56
2023-08-14T12:01:37.994Z,100737.38
2023-08-14T12:05:05.953Z,100743.16
2023-08-14T12:07:32.937Z,100741.84
2023-08-14T12:10:00.187Z,100742.38
2023-08-14T12:12:27.344Z,100733.72
2023-08-14T12:14:54.161Z,100734.53
2023-08-14T12:17:21.752Z,100738.47
2023-08-14T12:19:54.062Z,100739.56
2023-08-14T12:22:22.932Z,100729.31
2023-08-14T12:24:50.277Z,100730.00
2023-08-14T12:27:20.002Z,100732.28
2023-08-14T12:29:47.988Z,100725.19
2023-08-14T12:32:15.888Z,100723.34
2023-08-14T12:34:42.876Z,100727.19
2023-08-14T12:37:13.730Z,100719.78
2023-08-14T12:39:40.644Z,100718.88
2023-08-14T12:42:07.725Z,100718.28
2023-08-14T12:44:34.356Z,100718.03
2023-08-14T12:47:01.070Z,100723.31
2023-08-14T12:49:28.139Z,100723.84
2023-08-14T12:51:54.877Z,100716.09
2023-08-14T12:54:22.091Z,100717.28
2023-08-14T12:56:49.056Z,100715.59
2023-08-14T12:59:15.730Z,100709.41
2023-08-14T13:01:47.815Z,100701.44
2023-08-14T13:04:14.859Z,100702.59
2023-08-14T13:06:42.058Z,100698.41
2023-08-14T13:09:08.800Z,100701.22
2023-08-14T13:11:35.627Z,100689.72
2023-08-14T13:14:02.350Z,100690.66
2023-08-14T13:16:29.161Z,100691.53
2023-08-14T13:18:55.820Z,100693.06
2023-08-14T13:21:22.587Z,100693.13
2023-08-14T13:23:50.494Z,100688.22
2023-08-14T13:26:26.587Z,100692.34
2023-08-14T13:28:54.540Z,100692.31
2023-08-14T13:31:21.178Z,100680.22
2023-08-14T13:33:48.023Z,100679.69
2023-08-14T13:36:14.748Z,100670.72
2023-08-14T13:38:41.381Z,100680.38
2023-08-14T13:41:09.125Z,100678.94
2023-08-14T13:43:35.789Z,100682.56
2023-08-14T13:46:02.497Z,100678.09
2023-08-14T13:48:29.215Z,100674.47
2023-08-14T13:50:57.616Z,100677.72
2023-08-14T13:53:25.774Z,100670.16
2023-08-14T13:55:52.934Z,100665.19
2023-08-14T13:58:19.685Z,100667.97
2023-08-14T14:00:46.287Z,100661.38
2023-08-14T14:03:13.039Z,100664.16
2023-08-14T14:05:39.875Z,100662.53
2023-08-14T14:08:06.657Z,100650.09
2023-08-14T14:10:33.452Z,100654.22
2023-08-14T14:13:03.031Z,100659.13
2023-08-14T14:15:31.291Z,100647.41
2023-08-14T14:17:58.392Z,100655.78
2023-08-14T14:20:25.083Z,100644.94
2023-08-14T14:22:51.728Z,100649.59
2023-08-14T14:25:19.019Z,100641.16
2023-08-14T14:27:45.799Z,100642.38
2023-08-14T14:30:12.695Z,100639.50
2023-08-14T14:32:40.719Z,100643.22
2023-08-14T14:35:07.686Z,100643.56
2023-08-14T14:37:34.534Z,100637.22
2023-08-14T14:40:01.147Z,100652.72
2023-08-14T14:42:27.837Z,100642.63
2023-08-14T14:44:55.178Z,100639.16
2023-08-14T14:47:24.426Z,100648.66
2023-08-14T14:49:51.983Z,100647.66
2023-08-14T14:52:18.906Z,100643.66
2023-08-14T14:54:45.688Z,100638.56
2023-08-14T14:57:12.272Z,100633.44
2023-08-14T14:59:38.904Z,100639.38
2023-08-14T15:02:11.972Z,100632.81
2023-08-14T15:04:42.551Z,100626.53
2023-08-14T15:07:09.340Z,100626.56
2023-08-14T15:09:35.982Z,100630.94
2023-08-14T15:12:02.770Z,100620.47
2023-08-14T15:14:29.455Z,100626.81
2023-08-14T15:16:56.245Z,100622.72
2023-08-14T15:19:22.925Z,100622.78
2023-08-14T15:21:49.624Z,100617.69
2023-08-14T15:24:16.442Z,100621.22
2023-08-14T15:26:43.044Z,100628.94
2023-08-14T15:29:09.626Z,100627.81
2023-08-14T15:31:36.883Z,100628.50
2023-08-14T15:34:03.706Z,100618.72
2023-08-14T15:36:30.373Z,100614.69
2023-08-14T15:38:57.046Z,100615.34
2023-08-14T15:41:23.649Z,100610.69
2023-08-14T15:43:50.380Z,100608.72
2023-08-14T15:46:17.268Z,100611.25
2023-08-14T15:48:43.918Z,100609.91
2023-08-14T15:51:10.573Z,100611.13
2023-08-14T15:53:37.216Z,100608.53
2023-08-14T15:56:04.904Z,100607.03
2023-08-14T15:58:31.481Z,100606.47
2023-08-14T16:00:58.862Z,100600.25
2023-08-14T16:03:25.800Z,100601.84
2023-08-14T16:05:56.885Z,100609.69
2023-08-14T16:08:23.748Z,100598.13
2023-08-14T16:10:50.326Z,100595.53
2023-08-14T16:13:16.903Z,100601.72
2023-08-14T16:15:44.100Z,100601.91
2023-08-14T16:18:10.728Z,100603.06
2023-08-14T16:20:37.308Z,100606.94
2023-08-14T16:23:04.167Z,100612.72
2023-08-14T16:25:30.786Z,100602.25
2023-08-14T16:27:57.533Z,100598.69
2023-08-14T16:30:24.134Z,100598.41
2023-08-14T16:32:50.830Z,100596.88
2023-08-14T16:35:17.525Z,100595.78
2023-08-14T16:37:44.170Z,100598.31
2023-08-14T16:40:11.321Z,100596.66
2023-08-14T16:42:37.980Z,100588.75
2023-08-14T16:45:05.014Z,100587.38
2023-08-14T16:47:31.666Z,100592.19
2023-08-14T16:49:58.349Z,100597.47
2023-08-14T16:52:25.022Z,100593.16
2023-08-14T16:54:52.434Z,100593.41
2023-08-14T16:57:19.539Z,100595.50
2023-08-14T16:59:46.367Z,100604.66
2023-08-14T17:02:13.061Z,100603.63
2023-08-14T17:04:39.689Z,100595.69
2023-08-14T17:07:06.396Z,100595.19
2023-08-14T17:09:33.034Z,100601.88
2023-08-14T17:11:59.727Z,100603.88
2023-08-14T17:14:27.305Z,100610.59
2023-08-14T17:16:54.770Z,100609.47
2023-08-14T17:19:25.284Z,100607.50
2023-08-14T17:21:53.494Z,100606.59
2023-08-14T17:24:20.278Z,100613.75
2023-08-14T17:26:46.889Z,100609.00
2023-08-14T17:29:13.552Z,100609.16
2023-08-14T17:31:40.303Z,100604.34
2023-08-14T17:34:07.042Z,100608.13
2023-08-14T17:36:35.026Z,100600.38
2023-08-14T17:39:01.816Z,100598.03
2023-08-14T17:41:28.461Z,100604.34
2023-08-14T17:43:55.070Z,100610.75
2023-08-14T17:46:22.057Z,100600.22
2023-08-14T17:48:48.778Z,100607.25
2023-08-14T17:51:15.671Z,100614.28
2023-08-14T17:53:42.363Z,100619.69
2023-08-14T17:56:09.999Z,100614.47
2023-08-14T17:58:36.613Z,100622.47
2023-08-14T18:01:03.304Z,100634.03
2023-08-14T18:03:30.041Z,100631.00
2023-08-14T18:05:56.859Z,100632.63
2023-08-14T18:08:23.643Z,100640.00
2023-08-14T18:10:50.222Z,100640.38
2023-08-14T18:13:17.024Z,100644.09
2023-08-14T18:15:43.906Z,100642.41
2023-08-14T18:18:10.994Z,100645.81
2023-08-14T18:20:37.736Z,100641.38
2023-08-14T18:23:05.109Z,100649.06
2023-08-14T18:25:32.228Z,100658.94
2023-08-14T18:27:59.231Z,100659.28
2023-08-14T18:30:25.896Z,100659.41
2023-08-14T18:32:52.566Z,100662.41
2023-08-14T18:35:19.346Z,100666.09
2023-08-14T18:37:45.940Z,100674.41
2023-08-14T18:40:14.012Z,100668.38
2023-08-14T18:42:41.206Z,100676.50
2023-08-14T18:45:08.510Z,100675.94
2023-08-14T18:47:35.219Z,100677.56
2023-08-14T18:50:01.834Z,100674.28
2023-08-14T18:52:28.941Z,100682.06
2023-08-14T18:54:55.595Z,100688.97
2023-08-14T18:57:22.267Z,100690.94
2023-08-14T18:59:48.986Z,100691.06
2023-08-14T19:02:15.721Z,100693.13
2023-08-14T19:04:43.967Z,100697.63
2023-08-14T19:07:11.909Z,100693.31
2023-08-14T19:09:38.786Z,100698.25
2023-08-14T19:12:06.960Z,100702.19
2023-08-14T19:14:34.544Z,100705.28
2023-08-14T19:17:01.235Z,100701.63
2023-08-14T19:19:28.208Z,100698.50
2023-08-14T19:21:54.989Z,100697.66
2023-08-14T19:24:21.836Z,100698.09
2023-08-14T19:26:48.556Z,100702.84
2023-08-14T19:29:15.264Z,100701.78
2023-08-14T19:31:41.896Z,100697.44
2023-08-14T19:34:08.499Z,100694.09
2023-08-14T19:36:35.133Z,100698.34
2023-08-14T19:39:01.716Z,100704.25
2023-08-14T19:41:28.323Z,100709.31
2023-08-14T19:43:56.086Z,100718.41
2023-08-14T19:46:22.893Z,100713.97
2023-08-14T19:48:49.624Z,100713.78
2023-08-14T19:51:16.276Z,100711.25
2023-08-14T19:53:42.944Z,100714.66
2023-08-14T19:56:09.538Z,100715.69
2023-08-14T19:58:36.168Z,100722.25
2023-08-14T20:01:02.935Z,100713.16
2023-08-14T20:03:30.865Z,100716.47
2023-08-14T20:05:57.641Z,100722.19
2023-08-14T20:08:24.909Z,100717.09
2023-08-14T20:10:51.894Z,100723.88
2023-08-14T20:13:18.571Z,100723.44
2023-08-14T20:15:46.840Z,100714.97
2023-08-14T20:18:14.571Z,100719.13
2023-08-14T20:20:42.320Z,100725.88
2023-08-14T20:23:09.961Z,100720.16
2023-08-14T20:25:38.114Z,100720.78
2023-08-14T20:28:06.839Z,100717.66
2023-08-14T20:30:40.211Z,100717.81
2023-08-14T20:33:07.122Z,100717.38
2023-08-14T20:35:47.875Z,100719.25
2023-08-14T20:38:14.862Z,100718.97
2023-08-14T20:40:41.668Z,100728.09
2023-08-14T20:43:19.096Z,100723.47
2023-08-14T20:45:45.695Z,100732.91
2023-08-14T20:48:12.393Z,100731.03
2023-08-14T20:50:45.569Z,100727.41
2023-08-14T20:53:13.471Z,100726.72
2023-08-14T20:55:42.564Z,100729.38
2023-08-14T20:58:10.359Z,100724.09
2023-08-14T21:00:36.997Z,100724.63
2023-08-14T21:03:03.958Z,100731.97
2023-08-14T21:05:31.069Z,100732.84
2023-08-14T21:07:57.989Z,100733.19
2023-08-14T21:10:24.675Z,100723.56
2023-08-14T21:12:51.259Z,100723.13
2023-08-14T21:15:18.013Z,100719.13
2023-08-14T21:17:44.664Z,100721.34
2023-08-14T21:20:11.686Z,100709.78
2023-08-14T21:22:38.492Z,100722.22
2023-08-14T21:25:05.596Z,100721.44
2023-08-14T21:27:32.288Z,100714.28
2023-08-14T21:30:01.112Z,100709.88
2023-08-14T21:32:28.080Z,100710.91
2023-08-14T21:34:54.716Z,100719.03
2023-08-14T21:37:21.729Z,100710.19
2023-08-14T21:39:48.632Z,100721.22
2023-08-14T21:42:15.316Z,100713.88
2023-08-14T21:44:42.080Z,100719.66
2023-08-14T21:47:08.753Z,100724.31
2023-08-14T21:49:35.704Z,100716.97
2023-08-14T21:52:02.407Z,100710.94
2023-08-14T21:54:30.491Z,100716.53
2023-08-14T21:56:59.131Z,100723.41
2023-08-14T21:59:25.740Z,100723.75
2023-08-14T22:01:52.629Z,100717.06
2023-08-14T22:04:19.286Z,100719.47
2023-08-14T22:06:46.028Z,100715.69
2023-08-14T22:09:12.844Z,100709.47
2023-08-14T22:11:39.662Z,100708.44
2023-08-14T22:14:06.346Z,100704.38
2023-08-14T22:16:33.048Z,100714.19
2023-08-14T22:18:59.698Z,100707.13
2023-08-14T22:21:26.375Z,100705.72
2023-08-14T22:23:52.949Z,100715.22
2023-08-14T22:26:19.590Z,100712.03
2023-08-14T22:28:46.342Z,100712.22
2023-08-14T22:31:15.938Z,100702.34
2023-08-14T22:33:43.749Z,100712.34
2023-08-14T22:36:10.847Z,100702.97
2023-08-14T22:38:38.128Z,100697.69
2023-08-14T22:41:04.970Z,100704.09
2023-08-14T22:43:31.768Z,100701.09
2023-08-14T22:45:58.438Z,100705.50
2023-08-14T22:48:25.088Z,100701.28
2023-08-14T22:50:51.890Z,100707.09
2023-08-14T22:53:19.033Z,100707.56
2023-08-14T22:55:45.753Z,100696.22
2023-08-14T22:58:12.423Z,100695.63
2023-08-14T23:00:39.040Z,100696.38
2023-08-14T23:03:05.809Z,100705.03
2023-08-14T23:05:33.367Z,100702.13
2023-08-14T23:08:00.044Z,100700.44
2023-08-14T23:10:26.711Z,100700.63
2023-08-14T23:12:53.373Z,100699.16
2023-08-14T23:15:20.115Z,100696.16
2023-08-14T23:17:46.728Z,100700.75
2023-08-14T23:20:13.351Z,100701.00
2023-08-14T23:22:40.082Z,100696.75
2023-08-14T23:25:09.817Z,100688.03
2023-08-14T23:27:36.428Z,100693.31
2023-08-14T23:30:03.485Z,100694.47
2023-08-14T23:32:30.126Z,100690.06
2023-08-14T23:34:57.184Z,100690.06
2023-08-14T23:37:24.151Z,100699.75
2023-08-14T23:39:50.798Z,100678.75
2023-08-14T23:42:17.388Z,100687.97
2023-08-14T23:44:44.003Z,100685.94
2023-08-14T23:47:10.561Z,100686.03
2023-08-14T23:49:37.479Z,100688.22
2023-08-14T23:52:04.324Z,100685.38
2023-08-14T23:54:31.770Z,100691.09
2023-08-14T23:56:58.443Z,100692.28
2023-08-14T23:59:25.083Z,100693.84
